createdAt,value
2022-08-30T00:01:14.415Z,101261.94
2022-08-30T00:03:47.237Z,101257.19
2022-08-30T00:06:16.958Z,101260.38
2022-08-30T00:08:45.482Z,101252.41
2022-08-30T00:11:15.361Z,101259.97
2022-08-30T00:13:45.820Z,101254.75
2022-08-30T00:16:13.703Z,101255.97
2022-08-30T00:18:42.045Z,101261.09
2022-08-30T00:21:10.199Z,101256.72
2022-08-30T00:23:38.517Z,101263.09
2022-08-30T00:26:06.897Z,101260.28
2022-08-30T00:28:34.594Z,101262.59
2022-08-30T00:31:02.669Z,101266.94
2022-08-30T00:33:30.232Z,101274.00
2022-08-30T00:35:57.528Z,101279.47
2022-08-30T00:38:24.870Z,101276.66
2022-08-30T00:40:52.996Z,101275.44
2022-08-30T00:43:24.509Z,101272.25
2022-08-30T00:45:55.350Z,101270.66
2022-08-30T00:48:23.353Z,101257.13
2022-08-30T00:50:56.504Z,101268.19
2022-08-30T00:53:27.411Z,101271.38
2022-08-30T00:55:55.439Z,101260.25
2022-08-30T00:58:28.359Z,101259.06
2022-08-30T01:00:58.672Z,101258.31
2022-08-30T01:03:25.886Z,101256.31
2022-08-30T01:05:53.833Z,101249.22
2022-08-30T01:08:24.182Z,101254.00
2022-08-30T01:10:53.105Z,101252.84
2022-08-30T01:13:22.086Z,101251.31
2022-08-30T01:15:50.862Z,101256.06
2022-08-30T01:18:20.888Z,101255.63
2022-08-30T01:21:12.109Z,101261.16
2022-08-30T01:23:43.047Z,101249.56
2022-08-30T01:26:13.506Z,101253.91
2022-08-30T01:28:48.871Z,101257.09
2022-08-30T01:31:16.736Z,101258.63
2022-08-30T01:33:43.870Z,101250.69
2022-08-30T01:36:14.434Z,101253.44
2022-08-30T01:38:53.678Z,101252.63
2022-08-30T01:41:24.084Z,101255.03
2022-08-30T01:43:53.934Z,101247.47
2022-08-30T01:46:24.681Z,101246.69
2022-08-30T01:48:56.348Z,101245.50
2022-08-30T01:51:27.583Z,101254.63
2022-08-30T01:53:55.082Z,101250.69
2022-08-30T01:56:23.690Z,101246.69
2022-08-30T01:58:52.345Z,101252.56
2022-08-30T02:01:22.851Z,101253.72
2022-08-30T02:03:50.616Z,101257.59
2022-08-30T02:06:19.693Z,101261.91
2022-08-30T02:08:47.928Z,101256.34
2022-08-30T02:11:15.534Z,101269.03
2022-08-30T02:13:45.269Z,101250.34
2022-08-30T02:16:16.375Z,101251.53
2022-08-30T02:18:44.463Z,101252.28
2022-08-30T02:21:13.070Z,101261.38
2022-08-30T02:23:41.270Z,101260.94
2022-08-30T02:26:09.538Z,101256.94
2022-08-30T02:28:42.814Z,101261.28
2022-08-30T02:31:18.031Z,101260.03
2022-08-30T02:33:48.729Z,101263.56
2022-08-30T02:36:16.283Z,101265.91
2022-08-30T02:38:43.764Z,101261.47
2022-08-30T02:41:11.059Z,101261.06
2022-08-30T02:43:38.355Z,101255.50
2022-08-30T02:46:05.942Z,101259.47
2022-08-30T02:48:33.462Z,101261.81
2022-08-30T02:51:07.337Z,101261.00
2022-08-30T02:53:40.303Z,101253.06
2022-08-30T02:56:07.901Z,101258.19
2022-08-30T02:58:35.055Z,101255.41
2022-08-30T03:01:02.512Z,101264.16
2022-08-30T03:03:29.753Z,101263.38
2022-08-30T03:05:57.089Z,101261.41
2022-08-30T03:08:24.749Z,101254.66
2022-08-30T03:10:52.782Z,101261.00
2022-08-30T03:13:19.954Z,101261.41
2022-08-30T03:15:50.530Z,101253.81
2022-08-30T03:18:18.699Z,101264.47
2022-08-30T03:20:54.257Z,101265.66
2022-08-30T03:23:23.842Z,101271.53
2022-08-30T03:25:51.751Z,101272.72
2022-08-30T03:28:18.972Z,101267.56
2022-08-30T03:30:46.257Z,101262.78
2022-08-30T03:33:13.559Z,101263.59
2022-08-30T03:35:40.984Z,101258.84
2022-08-30T03:38:08.678Z,101264.38
2022-08-30T03:40:36.540Z,101257.66
2022-08-30T03:43:04.355Z,101257.66
2022-08-30T03:45:32.664Z,101254.88
2022-08-30T03:48:00.278Z,101252.47
2022-08-30T03:50:27.618Z,101262.00
2022-08-30T03:52:55.586Z,101265.56
2022-08-30T03:55:23.404Z,101263.94
2022-08-30T03:57:50.680Z,101272.66
2022-08-30T04:00:20.071Z,101259.97
2022-08-30T04:02:47.321Z,101270.28
2022-08-30T04:05:14.858Z,101263.91
2022-08-30T04:07:46.698Z,101259.16
2022-08-30T04:10:14.130Z,101269.88
2022-08-30T04:12:43.274Z,101274.22
2022-08-30T04:15:14.560Z,101262.25
2022-08-30T04:17:41.924Z,101270.28
2022-08-30T04:20:09.763Z,101276.19
2022-08-30T04:22:37.291Z,101274.94
2022-08-30T04:25:05.447Z,101269.41
2022-08-30T04:27:33.290Z,101270.19
2022-08-30T04:30:00.449Z,101274.66
2022-08-30T04:32:28.138Z,101280.19
2022-08-30T04:34:59.845Z,101279.81
2022-08-30T04:37:27.181Z,101288.56
2022-08-30T04:40:00.829Z,101288.19
2022-08-30T04:42:31.836Z,101291.09
2022-08-30T04:45:01.786Z,101295.63
2022-08-30T04:47:29.121Z,101301.91
2022-08-30T04:49:56.349Z,101301.97
2022-08-30T04:52:23.461Z,101309.84
2022-08-30T04:54:57.659Z,101304.34
2022-08-30T04:57:26.450Z,101307.34
2022-08-30T04:59:54.234Z,101314.84
2022-08-30T05:02:21.945Z,101310.97
2022-08-30T05:05:08.277Z,101317.19
2022-08-30T05:07:35.928Z,101308.44
2022-08-30T05:10:07.870Z,101310.94
2022-08-30T05:12:37.834Z,101306.06
2022-08-30T05:15:05.297Z,101307.72
2022-08-30T05:17:32.843Z,101307.75
2022-08-30T05:20:02.365Z,101302.69
2022-08-30T05:22:29.683Z,101301.97
2022-08-30T05:24:56.893Z,101308.28
2022-08-30T05:27:24.288Z,101305.75
2022-08-30T05:29:51.581Z,101310.03
2022-08-30T05:32:19.269Z,101302.53
2022-08-30T05:34:46.567Z,101312.81
2022-08-30T05:37:13.923Z,101306.97
2022-08-30T05:39:45.144Z,101311.28
2022-08-30T05:42:19.639Z,101316.16
2022-08-30T05:44:47.942Z,101318.78
2022-08-30T05:47:15.260Z,101320.88
2022-08-30T05:49:42.409Z,101325.91
2022-08-30T05:52:09.568Z,101336.81
2022-08-30T05:54:36.789Z,101335.41
2022-08-30T05:57:03.985Z,101330.63
2022-08-30T05:59:31.478Z,101336.84
2022-08-30T06:01:58.871Z,101341.81
2022-08-30T06:04:26.933Z,101346.56
2022-08-30T06:06:54.839Z,101348.19
2022-08-30T06:09:22.009Z,101345.78
2022-08-30T06:11:49.146Z,101340.50
2022-08-30T06:14:16.430Z,101352.66
2022-08-30T06:16:46.102Z,101341.63
2022-08-30T06:19:15.712Z,101345.84
2022-08-30T06:21:43.518Z,101337.63
2022-08-30T06:24:12.010Z,101354.03
2022-08-30T06:26:43.074Z,101348.91
2022-08-30T06:29:13.374Z,101352.53
2022-08-30T06:31:41.071Z,101345.34
2022-08-30T06:34:08.380Z,101351.16
2022-08-30T06:36:36.561Z,101357.56
2022-08-30T06:39:04.338Z,101354.34
2022-08-30T06:41:34.706Z,101352.66
2022-08-30T06:44:04.426Z,101346.44
2022-08-30T06:46:35.332Z,101356.91
2022-08-30T06:49:04.597Z,101352.31
2022-08-30T06:51:36.234Z,101351.59
2022-08-30T06:54:04.792Z,101349.88
2022-08-30T06:56:32.701Z,101350.94
2022-08-30T06:59:00.220Z,101347.88
2022-08-30T07:01:29.938Z,101351.22
2022-08-30T07:03:58.781Z,101358.06
2022-08-30T07:06:27.702Z,101348.03
2022-08-30T07:08:56.171Z,101349.44
2022-08-30T07:11:28.516Z,101348.44
2022-08-30T07:13:56.605Z,101354.72
2022-08-30T07:16:24.042Z,101351.75
2022-08-30T07:18:51.667Z,101355.66
2022-08-30T07:21:26.654Z,101349.72
2022-08-30T07:23:56.621Z,101346.41
2022-08-30T07:26:28.144Z,101353.50
2022-08-30T07:28:56.578Z,101360.59
2022-08-30T07:31:25.126Z,101355.53
2022-08-30T07:33:53.023Z,101365.81
2022-08-30T07:36:22.161Z,101345.28
2022-08-30T07:38:51.104Z,101362.03
2022-08-30T07:41:30.373Z,101361.56
2022-08-30T07:43:58.555Z,101370.94
2022-08-30T07:46:26.407Z,101363.06
2022-08-30T07:48:55.382Z,101372.63
2022-08-30T07:51:25.780Z,101369.28
2022-08-30T07:53:53.260Z,101368.75
2022-08-30T07:56:21.140Z,101367.47
2022-08-30T07:58:48.938Z,101377.81
2022-08-30T08:01:17.405Z,101367.72
2022-08-30T08:03:45.671Z,101388.13
2022-08-30T08:06:14.793Z,101387.78
2022-08-30T08:08:42.649Z,101386.97
2022-08-30T08:11:23.644Z,101384.56
2022-08-30T08:13:54.125Z,101393.63
2022-08-30T08:16:24.759Z,101386.66
2022-08-30T08:18:53.183Z,101387.03
2022-08-30T08:21:23.007Z,101386.03
2022-08-30T08:23:50.480Z,101388.47
2022-08-30T08:26:18.259Z,101386.63
2022-08-30T08:28:47.282Z,101387.63
2022-08-30T08:31:27.060Z,101389.75
2022-08-30T08:36:31.609Z,101397.38
2022-08-30T08:38:59.315Z,101403.22
2022-08-30T08:41:29.396Z,101403.88
2022-08-30T08:43:56.809Z,101402.47
2022-08-30T08:46:48.523Z,101402.75
2022-08-30T08:49:15.941Z,101408.84
2022-08-30T08:52:01.966Z,101405.56
2022-08-30T08:54:54.043Z,101405.28
2022-08-30T08:57:24.735Z,101410.84
2022-08-30T08:59:54.632Z,101410.94
2022-08-30T09:02:34.570Z,101409.16
2022-08-30T09:05:03.761Z,101413.09
2022-08-30T09:07:37.161Z,101408.28
2022-08-30T09:10:05.301Z,101410.06
2022-08-30T09:12:32.485Z,101402.75
2022-08-30T09:15:12.405Z,101406.28
2022-08-30T09:17:54.933Z,101404.72
2022-08-30T09:20:31.235Z,101413.22
2022-08-30T09:22:59.652Z,101398.72
2022-08-30T09:25:31.234Z,101397.31
2022-08-30T09:28:13.976Z,101397.03
2022-08-30T09:30:59.845Z,101399.97
2022-08-30T09:33:29.107Z,101390.66
2022-08-30T09:35:59.688Z,101386.25
2022-08-30T09:38:33.724Z,101383.78
2022-08-30T09:41:22.158Z,101388.78
2022-08-30T09:44:10.289Z,101381.97
2022-08-30T09:46:46.501Z,101388.25
2022-08-30T09:49:39.178Z,101380.47
2022-08-30T09:52:56.726Z,101375.88
2022-08-30T09:55:43.408Z,101376.03
2022-08-30T09:58:38.327Z,101376.47
2022-08-30T10:01:32.471Z,101370.75
2022-08-30T10:04:49.869Z,101368.75
2022-08-30T10:07:19.540Z,101370.22
2022-08-30T10:10:01.679Z,101359.75
2022-08-30T10:12:45.548Z,101358.63
2022-08-30T10:15:38.515Z,101358.34
2022-08-30T10:18:28.959Z,101358.47
2022-08-30T10:21:21.606Z,101350.63
2022-08-30T10:23:57.803Z,101356.63
2022-08-30T10:26:33.392Z,101351.72
2022-08-30T10:29:17.003Z,101355.59
2022-08-30T10:32:19.438Z,101346.03
2022-08-30T10:34:54.599Z,101347.63
2022-08-30T10:37:25.905Z,101347.66
2022-08-30T10:40:23.066Z,101345.41
2022-08-30T10:42:54.469Z,101339.84
2022-08-30T10:45:23.996Z,101338.34
2022-08-30T10:48:00.505Z,101332.69
2022-08-30T10:50:39.098Z,101331.00
2022-08-30T10:53:35.294Z,101327.78
2022-08-30T10:56:24.750Z,101331.91
2022-08-30T10:58:55.137Z,101336.63
2022-08-30T11:01:46.277Z,101330.09
2022-08-30T11:04:31.053Z,101329.53
2022-08-30T11:07:17.108Z,101334.06
2022-08-30T11:10:21.451Z,101332.50
2022-08-30T11:13:10.997Z,101326.91
2022-08-30T11:16:06.720Z,101335.06
2022-08-30T11:18:51.161Z,101323.78
2022-08-30T11:21:39.491Z,101325.31
2022-08-30T11:24:26.046Z,101337.31
2022-08-30T11:26:58.576Z,101325.84
2022-08-30T11:29:30.913Z,101331.41
2022-08-30T11:32:19.006Z,101331.00
2022-08-30T11:34:46.644Z,101324.97
2022-08-30T11:37:36.880Z,101325.63
2022-08-30T11:40:15.560Z,101325.63
2022-08-30T11:42:50.078Z,101326.78
2022-08-30T11:45:25.423Z,101326.06
2022-08-30T11:48:29.011Z,101326.00
2022-08-30T11:51:02.799Z,101325.88
2022-08-30T11:53:38.498Z,101333.47
2022-08-30T11:56:29.176Z,101333.81
2022-08-30T11:59:11.826Z,101326.44
2022-08-30T12:01:51.183Z,101332.59
2022-08-30T12:04:34.876Z,101321.28
2022-08-30T12:07:08.651Z,101321.94
2022-08-30T12:09:36.010Z,101335.75
2022-08-30T12:12:37.916Z,101322.03
2022-08-30T12:15:05.904Z,101331.53
2022-08-30T12:18:15.763Z,101317.47
2022-08-30T12:20:48.256Z,101320.66
2022-08-30T12:23:21.717Z,101301.66
2022-08-30T12:25:50.899Z,101306.59
2022-08-30T12:28:24.830Z,101308.44
2022-08-30T12:30:53.704Z,101316.78
2022-08-30T12:33:36.613Z,101313.19
2022-08-30T12:36:16.568Z,101306.00
2022-08-30T12:38:45.215Z,101303.44
2022-08-30T12:41:20.139Z,101301.78
2022-08-30T12:43:52.555Z,101303.13
2022-08-30T12:46:20.930Z,101304.16
2022-08-30T12:48:48.767Z,101306.44
2022-08-30T12:51:45.558Z,101304.38
2022-08-30T12:54:21.458Z,101306.56
2022-08-30T12:59:58.489Z,101297.59
2022-08-30T13:02:52.697Z,101298.19
2022-08-30T13:05:37.384Z,101293.38
2022-08-30T13:08:18.521Z,101289.00
2022-08-30T13:11:07.325Z,101286.69
2022-08-30T13:13:52.699Z,101279.16
2022-08-30T13:16:23.367Z,101277.06
2022-08-30T13:18:53.516Z,101273.69
2022-08-30T13:21:33.101Z,101275.41
2022-08-30T13:24:02.981Z,101273.88
2022-08-30T13:26:39.976Z,101266.69
2022-08-30T13:29:14.907Z,101268.75
2022-08-30T13:31:42.090Z,101263.13
2022-08-30T13:34:11.171Z,101268.25
2022-08-30T13:36:46.449Z,101264.91
2022-08-30T13:39:15.362Z,101260.88
2022-08-30T13:41:43.585Z,101260.13
2022-08-30T13:44:12.681Z,101260.66
2022-08-30T13:46:48.627Z,101258.16
2022-08-30T13:52:23.014Z,101258.06
2022-08-30T13:54:55.406Z,101253.31
2022-08-30T14:00:19.703Z,101263.75
2022-08-30T14:02:54.579Z,101251.47
2022-08-30T14:05:48.832Z,101248.69
2022-08-30T14:11:12.055Z,101226.31
2022-08-30T14:16:31.710Z,101233.97
2022-08-30T14:19:00.648Z,101233.13
2022-08-30T14:21:28.574Z,101237.94
2022-08-30T14:23:57.684Z,101228.34
2022-08-30T14:26:33.634Z,101216.72
2022-08-30T14:29:04.147Z,101220.75
2022-08-30T14:31:32.612Z,101215.56
2022-08-30T14:34:02.029Z,101214.31
2022-08-30T14:36:31.550Z,101211.13
2022-08-30T14:38:58.686Z,101210.81
2022-08-30T14:41:26.266Z,101209.59
2022-08-30T14:43:53.490Z,101204.41
2022-08-30T14:46:22.193Z,101206.50
2022-08-30T14:48:50.413Z,101208.88
2022-08-30T14:51:20.813Z,101207.25
2022-08-30T14:53:51.342Z,101213.66
2022-08-30T14:56:20.338Z,101207.38
2022-08-30T14:58:52.431Z,101202.22
2022-08-30T15:01:22.469Z,101202.22
2022-08-30T15:03:53.029Z,101199.41
2022-08-30T15:06:20.384Z,101204.63
2022-08-30T15:08:51.529Z,101209.00
2022-08-30T15:11:20.884Z,101192.63
2022-08-30T15:13:48.825Z,101192.25
2022-08-30T15:16:29.681Z,101189.06
2022-08-30T15:18:58.267Z,101184.28
2022-08-30T15:21:26.194Z,101197.88
2022-08-30T15:23:53.962Z,101201.06
2022-08-30T15:26:22.130Z,101205.84
2022-08-30T15:28:50.469Z,101199.53
2022-08-30T15:31:23.847Z,101201.13
2022-08-30T15:33:51.181Z,101191.56
2022-08-30T15:36:18.557Z,101200.28
2022-08-30T15:38:46.055Z,101191.50
2022-08-30T15:41:13.691Z,101198.72
2022-08-30T15:43:42.103Z,101193.19
2022-08-30T15:46:22.909Z,101193.66
2022-08-30T15:48:57.426Z,101205.22
2022-08-30T15:51:25.945Z,101218.78
2022-08-30T15:53:53.381Z,101210.78
2022-08-30T15:56:21.254Z,101209.97
2022-08-30T15:58:48.734Z,101208.38
2022-08-30T16:01:22.834Z,101198.75
2022-08-30T16:04:00.521Z,101211.91
2022-08-30T16:06:35.549Z,101211.84
2022-08-30T16:09:04.249Z,101214.25
2022-08-30T16:11:32.477Z,101209.50
2022-08-30T16:13:59.937Z,101207.50
2022-08-30T16:16:27.474Z,101206.75
2022-08-30T16:18:55.403Z,101206.00
2022-08-30T16:21:29.403Z,101215.59
2022-08-30T16:23:59.165Z,101216.78
2022-08-30T16:26:29.636Z,101216.34
2022-08-30T16:28:57.085Z,101221.16
2022-08-30T16:31:26.864Z,101213.19
2022-08-30T16:33:57.343Z,101209.22
2022-08-30T16:36:29.948Z,101212.81
2022-08-30T16:38:58.318Z,101210.81
2022-08-30T16:41:28.059Z,101198.03
2022-08-30T16:43:56.195Z,101199.66
2022-08-30T16:46:27.822Z,101196.06
2022-08-30T16:49:03.937Z,101201.25
2022-08-30T16:51:33.483Z,101199.25
2022-08-30T16:54:05.150Z,101189.69
2022-08-30T16:56:33.854Z,101200.47
2022-08-30T16:59:03.289Z,101200.47
2022-08-30T17:01:35.400Z,101204.44
2022-08-30T17:04:04.493Z,101194.88
2022-08-30T17:06:33.244Z,101192.88
2022-08-30T17:09:03.917Z,101201.25
2022-08-30T17:11:33.843Z,101206.84
2022-08-30T17:14:01.588Z,101209.63
2022-08-30T17:16:30.156Z,101205.22
2022-08-30T17:18:59.789Z,101206.44
2022-08-30T17:21:31.007Z,101186.91
2022-08-30T17:24:02.391Z,101194.06
2022-08-30T17:26:34.167Z,101208.03
2022-08-30T17:29:01.600Z,101215.59
2022-08-30T17:31:31.249Z,101210.81
2022-08-30T17:34:03.154Z,101210.81
2022-08-30T17:36:35.532Z,101204.06
2022-08-30T17:39:11.243Z,101211.59
2022-08-30T17:41:48.231Z,101221.19
2022-08-30T17:44:25.579Z,101220.78
2022-08-30T17:46:53.924Z,101219.59
2022-08-30T17:49:22.800Z,101220.38
2022-08-30T17:51:56.141Z,101229.97
2022-08-30T17:54:24.381Z,101231.53
2022-08-30T17:56:54.183Z,101238.31
2022-08-30T17:59:25.409Z,101237.50
2022-08-30T18:01:54.943Z,101231.91
2022-08-30T18:04:24.875Z,101233.53
2022-08-30T18:06:53.946Z,101243.47
2022-08-30T18:09:21.738Z,101239.06
2022-08-30T18:11:50.021Z,101239.84
2022-08-30T18:14:17.692Z,101246.63
2022-08-30T18:16:49.618Z,101254.63
2022-08-30T18:19:26.336Z,101259.00
2022-08-30T18:21:54.522Z,101250.63
2022-08-30T18:24:23.832Z,101257.00
2022-08-30T18:26:54.541Z,101251.41
2022-08-30T18:29:29.109Z,101265.72
2022-08-30T18:32:04.525Z,101262.16
2022-08-30T18:34:32.919Z,101264.56
2022-08-30T18:37:00.399Z,101273.72
2022-08-30T18:39:29.014Z,101270.13
2022-08-30T18:42:04.817Z,101270.94
2022-08-30T18:44:33.844Z,101278.50
2022-08-30T18:47:03.816Z,101278.47
2022-08-30T18:49:34.587Z,101282.06
2022-08-30T18:52:06.657Z,101280.44
2022-08-30T18:54:47.279Z,101291.22
2022-08-30T18:57:19.508Z,101292.03
2022-08-30T18:59:46.733Z,101290.81
2022-08-30T19:02:15.999Z,101290.44
2022-08-30T19:04:49.587Z,101296.81
2022-08-30T19:07:19.922Z,101294.41
2022-08-30T19:09:47.953Z,101300.78
2022-08-30T19:12:15.413Z,101305.97
2022-08-30T19:14:43.410Z,101304.78
2022-08-30T19:17:11.018Z,101309.13
2022-08-30T19:19:47.388Z,101309.53
2022-08-30T19:22:19.807Z,101315.09
2022-08-30T19:24:50.803Z,101307.94
2022-08-30T19:27:21.557Z,101321.47
2022-08-30T19:30:08.258Z,101317.09
2022-08-30T19:32:36.000Z,101318.69
2022-08-30T19:35:03.509Z,101325.84
2022-08-30T19:37:31.078Z,101312.75
2022-08-30T19:40:03.835Z,101319.91
2022-08-30T19:42:31.963Z,101320.28
2022-08-30T19:45:02.547Z,101321.09
2022-08-30T19:47:30.018Z,101323.91
2022-08-30T19:50:02.354Z,101323.06
2022-08-30T19:52:31.620Z,101326.25
2022-08-30T19:55:00.663Z,101329.84
2022-08-30T19:57:28.774Z,101325.84
2022-08-30T19:59:58.564Z,101328.28
2022-08-30T20:02:27.293Z,101331.44
2022-08-30T20:04:55.163Z,101333.06
2022-08-30T20:07:26.265Z,101333.44
2022-08-30T20:09:57.623Z,101336.66
2022-08-30T20:12:26.758Z,101330.66
2022-08-30T20:14:59.245Z,101328.69
2022-08-30T20:17:42.318Z,101329.50
2022-08-30T20:20:20.517Z,101327.88
2022-08-30T20:22:54.371Z,101336.25
2022-08-30T20:25:22.961Z,101339.03
2022-08-30T20:27:56.604Z,101336.66
2022-08-30T20:30:23.973Z,101341.03
2022-08-30T20:32:52.845Z,101339.44
2022-08-30T20:35:20.361Z,101343.03
2022-08-30T20:37:47.704Z,101343.03
2022-08-30T20:40:16.154Z,101338.22
2022-08-30T20:42:45.876Z,101342.25
2022-08-30T20:45:17.263Z,101335.06
2022-08-30T20:47:44.768Z,101344.59
2022-08-30T20:50:19.609Z,101338.22
2022-08-30T20:52:47.070Z,101342.22
2022-08-30T20:55:14.802Z,101350.97
2022-08-30T20:57:42.248Z,101349.38
2022-08-30T21:00:12.258Z,101341.00
2022-08-30T21:02:46.561Z,101342.59
2022-08-30T21:05:17.416Z,101337.03
2022-08-30T21:07:46.585Z,101340.63
2022-08-30T21:10:23.132Z,101341.41
2022-08-30T21:12:50.791Z,101332.63
2022-08-30T21:15:36.692Z,101331.84
2022-08-30T21:18:04.965Z,101337.41
2022-08-30T21:20:33.063Z,101338.63
2022-08-30T21:23:00.544Z,101335.41
2022-08-30T21:25:27.712Z,101326.63
2022-08-30T21:27:55.183Z,101331.81
2022-08-30T21:30:22.503Z,101334.59
2022-08-30T21:32:49.671Z,101324.63
2022-08-30T21:35:35.695Z,101331.81
2022-08-30T21:38:06.718Z,101320.63
2022-08-30T21:40:34.007Z,101325.00
2022-08-30T21:43:05.589Z,101336.53
2022-08-30T21:45:37.835Z,101328.59
2022-08-30T21:48:05.651Z,101334.16
2022-08-30T21:50:33.036Z,101335.72
2022-08-30T21:53:01.177Z,101330.56
2022-08-30T21:55:28.474Z,101330.56
2022-08-30T21:57:55.702Z,101321.78
2022-08-30T22:00:22.958Z,101324.13
2022-08-30T22:02:53.286Z,101318.97
2022-08-30T22:05:20.791Z,101314.97
2022-08-30T22:07:48.125Z,101321.75
2022-08-30T22:10:15.435Z,101313.38
2022-08-30T22:12:42.723Z,101307.00
2022-08-30T22:15:10.757Z,101312.59
2022-08-30T22:17:37.990Z,101306.16
2022-08-30T22:20:06.537Z,101299.38
2022-08-30T22:22:34.048Z,101303.75
2022-08-30T22:25:01.166Z,101309.28
2022-08-30T22:27:28.564Z,101314.00
2022-08-30T22:29:55.695Z,101298.88
2022-08-30T22:32:23.455Z,101298.88
2022-08-30T22:34:51.170Z,101298.44
2022-08-30T22:37:18.491Z,101294.84
2022-08-30T22:39:45.722Z,101287.66
2022-08-30T22:42:13.869Z,101292.06
2022-08-30T22:44:41.040Z,101285.69
2022-08-30T22:47:08.989Z,101283.72
2022-08-30T22:49:36.116Z,101266.56
2022-08-30T22:52:03.678Z,101269.75
2022-08-30T22:54:31.362Z,101272.47
2022-08-30T22:56:58.512Z,101274.06
2022-08-30T22:59:30.415Z,101275.25
2022-08-30T23:02:00.295Z,101272.06
2022-08-30T23:04:27.909Z,101265.28
2022-08-30T23:06:55.251Z,101270.41
2022-08-30T23:09:23.115Z,101264.41
2022-08-30T23:11:50.421Z,101260.03
2022-08-30T23:14:17.759Z,101254.06
2022-08-30T23:16:45.402Z,101250.44
2022-08-30T23:19:13.107Z,101253.22
2022-08-30T23:21:40.372Z,101242.81
2022-08-30T23:24:25.952Z,101246.44
2022-08-30T23:27:12.702Z,101246.06
2022-08-30T23:30:00.176Z,101242.91
2022-08-30T23:32:45.763Z,101240.94
2022-08-30T23:35:32.621Z,101238.91
2022-08-30T23:38:21.741Z,101230.56
2022-08-30T23:41:07.272Z,101229.38
2022-08-30T23:43:54.219Z,101232.56
2022-08-30T23:46:40.377Z,101227.78
2022-08-30T23:49:25.888Z,101229.75
2022-08-30T23:52:12.094Z,101227.31
2022-08-30T23:54:57.803Z,101231.28
2022-08-30T23:57:45.176Z,101228.06
